Airfield :
LOGIN :

Register | Disclaimer

   EN    FR    IT 

 










Legend :    VFR   Marginal VFR   IFR   Intensive IFR   Very Intensive IFR
Visi :
Ceiling :
>= 8 km
>= 3000ft
5 to 8 km
1000 to 3000 ft
1500m to 5 km
500 to 1000 ft
800 to 1500m
200 to 500 ft
< 800m
< 200 ft
Symbols :   Thunderstorms  Fog  Heavy snow  Heavy precipitations  Wind > 20 kt
SIGMETs :     Misc.  Thunderstorms  Icing  Turbulence  Mountain Waves  Volcanic Ashes







- Airport Elevation : 100 ft


EBDT - Schaffen

CURRENT METAR :
  • 170655Z 16003KT 9999 SCT260 18/13 Q1021 BLU BLU

EXPIRED METARs :
  • 170625Z 17004KT 9999 FEW260 17/13 Q1021 BLU BLU
  • 170555Z 17004KT 9999 FEW260 15/13 Q1021 BLU BLU
  • 170525Z 15004KT 9999 FEW260 15/13 Q1021 BLU BLU
  • 170455Z 14003KT 9999 FEW100 14/12 Q1021 BLU BLU
  • 170425Z 14003KT 9999 FEW100 13/12 Q1021 BLU BLU

TAF TAF EBDT
Valid from the 17 at 07:00 until the 17 at 16:00 UTC


170541Z 1707/1716 17005KT 9999 FEW250
BECMG 1709/1711 SCT040
No reported NOTAMs for that airfield.



MET'MAP, your aeronautical weather chart ! - Copyright ORBIFLY December 2007 - Disclaimer

ORBIFLY MET'MAP TEAM :

Programming & Development : Alexandra Zaïnal
Concept & Development : Baudouin d'Aumeries
Co-Development & Prog : Marc-Olivier Méhu
Technical & hardware support : Manuel Goepfert

Contact : metmap@orbifly.com




SOURCES & CREDITS :

   NOAA